This is the latest recevied weather packets stored in our database for station/object LRSB. If no packets are shown the sender has not sent any weather packets the latest 10 day(s).
| Time | Temp. | Humidity | Pressure | Rain* | Wind** | Luminosity | Snow |
|---|---|---|---|---|---|---|---|
| 1777738691 | 13.89° C | 36% | 1020 hPa | - | - | - | - |
| 1777737792 | 13.89° C | 36% | 1020 hPa | - | - | - | - |
| 1777736897 | 13.89° C | 36% | 1020 hPa | - | - | - | - |
| 1777735992 | 13.89° C | 36% | 1020 hPa | - | - | - | - |
| 1777735091 | 12.78° C | 41% | 1020 hPa | - | - | - | - |
| 1777734191 | 12.78° C | 41% | 1020 hPa | - | - | - | - |
| 1777733291 | 13.89° C | 36% | 1021 hPa | - | - | - | - |
| 1777732391 | 13.89° C | 36% | 1021 hPa | - | - | - | - |
| 1777731491 | 12.78° C | 38% | 1021 hPa | - | - | - | - |
| 1777730592 | 12.78° C | 38% | 1021 hPa | - | - | - | - |
| 1777729691 | 12.78° C | 41% | 1021 hPa | - | - | - | - |
| 1777728791 | 12.78° C | 41% | 1021 hPa | - | - | - | - |
| 1777727891 | 13.89° C | 39% | 1021 hPa | - | - | - | - |
| 1777726992 | 13.89° C | 39% | 1021 hPa | - | - | - | - |
| 1777726092 | 13.89° C | 39% | 1022 hPa | - | - | - | - |
| 1777725191 | 13.89° C | 39% | 1022 hPa | - | - | - | - |
| 1777724291 | 13.89° C | 41% | 1022 hPa | - | - | - | - |
| 1777723399 | 13.89° C | 41% | 1022 hPa | - | - | - | - |
| 1777722491 | 12.22° C | 41% | 1022 hPa | - | - | - | - |
| 1777721591 | 12.22° C | 41% | 1022 hPa | - | - | - | - |
| 1777720691 | 12.78° C | 38% | 1022 hPa | - | - | - | - |
| 1777719791 | 12.78° C | 38% | 1022 hPa | - | - | - | - |
| 1777718891 | 12.22° C | 41% | 1022 hPa | - | - | - | - |
| 1777717991 | 12.22° C | 41% | 1022 hPa | - | - | - | - |
| 1777717088 | 12.22° C | 41% | 1023 hPa | - | - | - | - |
* Rain since midnight (hover to see other rain measurements)
** Current wind speed in m/s (hover to see current wind gust speed)